Home   Weather   USA   Woodland   Past weeks
Flag for USA

Past Weather in Woodland, California, USA — Yesterday and Last 2 Weeks

Currently: 84 °F. Sunny. (Weather station: University Airport Davis, USA). See more current weather

Past Weather in Woodland — Graph

°F

Woodland Temperature Yesterday

Maximum temperature yesterday: 90 °F (at 4:55 pm)
Minimum temperature yesterday: 59 °F (at 4:15 am)
Average temperature yesterday: 74 °F

High & Low Weather Summary for the Past Weeks

 TemperatureHumidityPressure
High102 °F (May 31, 3:50 pm)94% (Jun 13, 5:30 am)30.25 "Hg (Jun 13, 5:30 am)
Low45 °F (Jun 10, 5:15 am)14% (May 31, 3:50 pm)29.68 "Hg (Jun 6, 6:10 pm)
Average70 °F50%29.89 "Hg
* Reported May 29 11:10 am — Jun 13 11:55 am, Woodland. Weather by CustomWeather, © 2021

Note: Actual official high and low records may vary slightly from our data, if they occured in-between our weather recording intervals... More about our weather records

Woodland Weather History for the Previous 24 Hours

Scroll right to see more
 ConditionsComfort  
Time TempWeatherWind HumidityBarometerVisibility
11:55 am
Sun, Jun 13
84 °FSunny.7 mph35%29.89 "Hg10 mi
11:15 am82 °FSunny.6 mph40%29.89 "Hg10 mi
10:55 am82 °FSunny.3 mph40%29.89 "Hg10 mi
10:30 am81 °FSunny.6 mph45%29.89 "Hg10 mi
9:50 am77 °FSunny.3 mph51%29.89 "Hg10 mi
9:35 am75 °FSunny.5 mph57%29.89 "Hg10 mi
9:10 am73 °FSunny.No wind61%29.89 "Hg10 mi
8:35 am72 °FSunny.5 mph65%29.89 "Hg10 mi
8:15 am70 °FSunny.6 mph69%29.89 "Hg10 mi
7:55 am68 °FSunny.No wind69%29.89 "Hg10 mi
7:15 am66 °FSunny.No wind73%29.88 "Hg10 mi
6:55 am63 °FSunny.No wind83%29.88 "Hg10 mi
6:35 am63 °FSunny.No wind83%29.87 "Hg10 mi
5:55 am59 °FSunny.No wind88%29.87 "Hg10 mi
5:30 am59 °FClear.No wind94%29.86 "Hg10 mi
5:15 am59 °FClear.No wind88%29.87 "Hg10 mi
3:55 am61 °FClear.No wind88%29.86 "Hg10 mi
3:35 am63 °FClear.No wind83%29.86 "Hg10 mi
3:15 am63 °FClear.No wind83%29.86 "Hg10 mi
2:55 am63 °FClear.No wind83%29.86 "Hg10 mi
2:35 am63 °FClear.No wind83%29.86 "Hg10 mi
1:50 am64 °FClear.No wind78%29.86 "Hg10 mi
1:35 am64 °FClear.7 mph78%29.86 "Hg10 mi
12:55 am64 °FClear.7 mph78%29.86 "Hg10 mi
12:15 am66 °FClear.7 mph73%29.85 "Hg10 mi
11:35 pm
Sat, Jun 12
68 °FClear.8 mph69%29.85 "Hg10 mi
11:15 pm68 °FClear.8 mph69%29.85 "Hg10 mi
10:55 pm68 °FClear.7 mph69%29.85 "Hg10 mi
10:35 pm70 °FClear.No wind64%29.85 "Hg10 mi
10:10 pm70 °FClear.No wind64%29.85 "Hg10 mi
9:30 pm73 °FClear.No wind57%29.84 "Hg10 mi
9:15 pm75 °FClear.No wind54%29.84 "Hg10 mi
7:15 pm88 °FSunny.6 mph33%29.82 "Hg10 mi
6:55 pm90 °FSunny.8 mph31%29.82 "Hg10 mi
6:35 pm90 °FSunny.No wind36%29.82 "Hg10 mi
5:50 pm90 °FSunny.7 mph33%29.83 "Hg10 mi
5:35 pm90 °FSunny.9 mph33%29.84 "Hg10 mi
4:55 pm90 °FSunny.8 mph33%29.85 "Hg10 mi
4:15 pm88 °FSunny.5 mph35%29.87 "Hg10 mi
3:50 pm88 °FSunny.7 mph35%29.88 "Hg10 mi
2:35 pm86 °FSunny.5 mph35%29.90 "Hg10 mi
2:15 pm86 °FSunny.No wind33%29.91 "Hg10 mi
1:55 pm84 °FSunny.No wind35%29.92 "Hg10 mi
1:10 pm82 °FSunny.No wind37%29.94 "Hg10 mi
Weather by CustomWeather, © 2021

See weather overview